createdAt,value
2019-04-01T00:01:25.877Z,7.72
2019-04-01T00:03:57.417Z,7.84
2019-04-01T00:06:28.857Z,7.80
2019-04-01T00:09:00.237Z,7.81
2019-04-01T00:11:31.799Z,7.84
2019-04-01T00:14:03.408Z,7.96
2019-04-01T00:16:34.725Z,7.91
2019-04-01T00:19:06.389Z,8.00
2019-04-01T00:21:37.920Z,8.02
2019-04-01T00:24:09.557Z,8.05
2019-04-01T00:26:41.182Z,8.05
2019-04-01T00:29:12.907Z,8.02
2019-04-01T00:31:44.428Z,8.09
2019-04-01T00:34:15.988Z,7.83
2019-04-01T00:36:47.319Z,7.68
2019-04-01T00:39:18.534Z,7.62
2019-04-01T00:42:00.632Z,7.59
2019-04-01T00:44:32.182Z,7.34
2019-04-01T00:47:03.641Z,7.19
2019-04-01T00:49:35.022Z,7.15
2019-04-01T00:52:06.279Z,7.06
2019-04-01T00:54:37.647Z,7.04
2019-04-01T00:57:09.283Z,7.02
2019-04-01T00:59:40.542Z,6.98
2019-04-01T01:02:11.741Z,6.96
2019-04-01T01:04:43.338Z,6.93
2019-04-01T01:07:15.038Z,6.85
2019-04-01T01:09:46.330Z,6.82
2019-04-01T01:12:17.818Z,6.58
2019-04-01T01:14:49.299Z,6.38
2019-04-01T01:17:20.623Z,6.48
2019-04-01T01:19:52.088Z,6.48
2019-04-01T01:22:23.658Z,6.46
2019-04-01T01:24:56.218Z,6.49
2019-04-01T01:27:27.564Z,6.56
2019-04-01T01:29:59.030Z,6.48
2019-04-01T01:32:30.375Z,6.23
2019-04-01T01:35:01.813Z,6.27
2019-04-01T01:37:33.351Z,6.27
2019-04-01T01:40:05.018Z,6.21
2019-04-01T01:42:36.469Z,6.28
2019-04-01T01:45:08.118Z,6.36
2019-04-01T01:47:39.632Z,6.29
2019-04-01T01:50:11.446Z,6.40
2019-04-01T01:52:42.971Z,6.39
2019-04-01T01:55:14.565Z,6.32
2019-04-01T01:57:46.137Z,6.34
2019-04-01T02:00:18.347Z,6.20
2019-04-01T02:02:49.574Z,6.26
2019-04-01T02:05:21.101Z,6.13
2019-04-01T02:07:52.513Z,6.27
2019-04-01T02:10:24.054Z,6.21
2019-04-01T02:12:55.562Z,6.19
2019-04-01T02:15:27.169Z,6.07
2019-04-01T02:17:59.110Z,6.19
2019-04-01T02:20:30.422Z,6.25
2019-04-01T02:23:01.745Z,6.27
2019-04-01T02:25:33.202Z,6.03
2019-04-01T02:28:04.728Z,5.99
2019-04-01T02:30:36.157Z,5.87
2019-04-01T02:33:07.564Z,5.71
2019-04-01T02:35:39.084Z,5.66
2019-04-01T02:38:10.309Z,5.49
2019-04-01T02:40:41.855Z,5.54
2019-04-01T02:43:13.125Z,5.59
2019-04-01T02:45:44.377Z,5.55
2019-04-01T02:48:15.850Z,5.45
2019-04-01T02:50:47.415Z,5.37
2019-04-01T02:53:18.659Z,5.40
2019-04-01T02:55:50.068Z,5.32
2019-04-01T02:58:21.475Z,5.33
2019-04-01T03:00:53.150Z,5.21
2019-04-01T03:03:24.395Z,5.15
2019-04-01T03:05:56.068Z,5.16
2019-04-01T03:08:27.533Z,5.12
2019-04-01T03:10:59.107Z,5.14
2019-04-01T03:13:30.692Z,5.21
2019-04-01T03:16:02.298Z,5.31
2019-04-01T03:18:33.733Z,5.42
2019-04-01T03:21:05.203Z,5.45
2019-04-01T03:23:36.503Z,5.44
2019-04-01T03:26:08.714Z,5.41
2019-04-01T03:28:40.457Z,5.35
2019-04-01T03:31:13.038Z,5.41
2019-04-01T03:33:44.762Z,5.44
2019-04-01T03:36:16.136Z,5.33
2019-04-01T03:38:47.472Z,5.38
2019-04-01T03:41:19.814Z,5.40
2019-04-01T03:43:51.329Z,5.42
2019-04-01T03:46:22.951Z,5.19
2019-04-01T03:48:54.423Z,5.33
2019-04-01T03:51:25.812Z,5.27
2019-04-01T03:53:57.652Z,5.33
2019-04-01T03:56:28.990Z,5.29
2019-04-01T03:59:00.572Z,5.27
2019-04-01T04:01:31.975Z,5.32
2019-04-01T04:04:03.359Z,5.32
2019-04-01T04:06:35.078Z,5.13
2019-04-01T04:09:07.585Z,5.09
2019-04-01T04:11:38.812Z,5.14
2019-04-01T04:14:10.373Z,5.01
2019-04-01T04:16:41.579Z,5.11
2019-04-01T04:19:13.018Z,4.98
2019-04-01T04:21:44.538Z,5.00
2019-04-01T04:24:15.754Z,4.99
2019-04-01T04:26:47.314Z,4.97
2019-04-01T04:29:18.767Z,4.96
2019-04-01T04:31:50.210Z,4.87
2019-04-01T04:34:21.711Z,4.93
2019-04-01T04:36:53.600Z,4.92
2019-04-01T04:39:25.443Z,4.85
2019-04-01T04:41:57.155Z,4.74
2019-04-01T04:44:28.658Z,4.80
2019-04-01T04:47:00.159Z,4.89
2019-04-01T04:49:31.583Z,4.93
2019-04-01T04:52:04.627Z,5.01
2019-04-01T04:54:37.135Z,5.03
2019-04-01T04:57:08.424Z,4.89
2019-04-01T04:59:39.810Z,4.86
2019-04-01T05:02:11.403Z,4.98
2019-04-01T05:04:43.047Z,5.08
2019-04-01T05:07:14.527Z,5.03
2019-04-01T05:09:45.878Z,5.19
2019-04-01T05:12:17.100Z,5.20
2019-04-01T05:14:48.751Z,5.33
2019-04-01T05:17:20.053Z,5.42
2019-04-01T05:19:51.600Z,5.63
2019-04-01T05:22:25.357Z,6.06
2019-04-01T05:24:58.053Z,6.53
2019-04-01T05:27:30.899Z,7.02
2019-04-01T05:30:03.883Z,7.56
2019-04-01T05:32:37.495Z,8.16
2019-04-01T05:35:09.113Z,8.71
2019-04-01T05:37:40.873Z,9.36
2019-04-01T05:40:12.374Z,9.83
2019-04-01T05:42:43.864Z,9.26
2019-04-01T05:45:15.595Z,9.10
2019-04-01T05:47:49.888Z,9.07
2019-04-01T05:50:21.281Z,9.74
2019-04-01T05:52:52.846Z,9.47
2019-04-01T05:55:26.050Z,9.25
2019-04-01T05:57:57.809Z,9.40
2019-04-01T06:00:48.499Z,9.27
2019-04-01T06:03:20.081Z,9.21
2019-04-01T06:05:51.541Z,9.39
2019-04-01T06:08:23.030Z,9.62
2019-04-01T06:10:54.702Z,9.84
2019-04-01T06:13:26.330Z,9.84
2019-04-01T06:15:58.545Z,10.48
2019-04-01T06:18:30.085Z,10.59
2019-04-01T06:21:01.841Z,10.60
2019-04-01T06:23:33.450Z,10.60
2019-04-01T06:26:05.012Z,10.93
2019-04-01T06:28:36.457Z,11.04
2019-04-01T06:31:08.284Z,11.14
2019-04-01T06:33:39.665Z,11.52
2019-04-01T06:36:11.466Z,11.66
2019-04-01T06:38:43.188Z,12.31
2019-04-01T06:41:14.442Z,12.35
2019-04-01T06:43:45.989Z,12.47
2019-04-01T06:46:17.233Z,12.60
2019-04-01T06:48:48.521Z,12.74
2019-04-01T06:51:19.831Z,12.92
2019-04-01T06:53:52.695Z,13.83
2019-04-01T06:56:23.960Z,13.89
2019-04-01T06:58:55.503Z,13.84
2019-04-01T07:01:26.754Z,13.82
2019-04-01T07:03:57.871Z,13.86
2019-04-01T07:06:28.922Z,13.67
2019-04-01T07:09:00.196Z,13.69
2019-04-01T07:11:31.485Z,13.71
2019-04-01T07:14:02.782Z,14.25
2019-04-01T07:16:34.073Z,14.01
2019-04-01T07:19:05.463Z,14.17
2019-04-01T07:21:36.871Z,14.54
2019-04-01T07:24:07.875Z,14.30
2019-04-01T07:26:38.953Z,14.40
2019-04-01T07:29:10.281Z,14.83
2019-04-01T07:31:41.887Z,15.18
2019-04-01T07:34:12.921Z,15.32
2019-04-01T07:36:44.146Z,15.49
2019-04-01T07:39:15.222Z,15.80
2019-04-01T07:41:46.434Z,16.11
2019-04-01T07:44:17.767Z,16.24
2019-04-01T07:46:49.105Z,16.24
2019-04-01T07:49:20.447Z,16.25
2019-04-01T07:51:51.782Z,17.03
2019-04-01T07:54:23.028Z,17.03
2019-04-01T07:56:54.511Z,16.83
2019-04-01T07:59:25.634Z,16.83
2019-04-01T08:01:57.212Z,17.28
2019-04-01T08:04:28.415Z,17.35
2019-04-01T08:06:59.767Z,17.13
2019-04-01T08:09:31.269Z,17.48
2019-04-01T08:12:02.647Z,17.56
2019-04-01T08:14:34.007Z,17.86
2019-04-01T08:17:05.330Z,17.48
2019-04-01T08:19:37.384Z,17.55
2019-04-01T08:22:08.619Z,18.20
2019-04-01T08:24:39.732Z,17.75
2019-04-01T08:27:11.174Z,17.75
2019-04-01T08:29:42.641Z,18.62
2019-04-01T08:32:14.194Z,18.62
2019-04-01T08:34:45.725Z,18.87
2019-04-01T08:37:17.201Z,18.74
2019-04-01T08:39:48.340Z,19.12
2019-04-01T08:42:19.538Z,19.32
2019-04-01T08:44:50.920Z,19.63
2019-04-01T08:47:22.266Z,19.77
2019-04-01T08:49:53.632Z,19.74
2019-04-01T08:52:24.747Z,19.66
2019-04-01T08:54:56.056Z,19.62
2019-04-01T08:57:27.294Z,19.91
2019-04-01T08:59:58.613Z,20.06
2019-04-01T09:02:29.770Z,20.36
2019-04-01T09:05:01.052Z,20.51
2019-04-01T09:07:32.091Z,20.51
2019-04-01T09:10:03.276Z,20.85
2019-04-01T09:12:34.390Z,20.90
2019-04-01T09:15:06.250Z,20.66
2019-04-01T09:17:40.331Z,20.93
2019-04-01T09:20:11.676Z,20.86
2019-04-01T09:22:42.680Z,20.78
2019-04-01T09:25:13.945Z,21.03
2019-04-01T09:27:45.397Z,20.79
2019-04-01T09:30:18.640Z,21.19
2019-04-01T09:32:49.852Z,21.17
2019-04-01T09:35:21.365Z,20.98
2019-04-01T09:37:52.739Z,21.20
2019-04-01T09:40:24.140Z,21.30
2019-04-01T09:42:55.533Z,21.69
2019-04-01T09:45:27.089Z,21.72
2019-04-01T09:47:58.496Z,21.57
2019-04-01T09:50:29.760Z,21.48
2019-04-01T09:53:00.955Z,21.29
2019-04-01T09:55:32.291Z,21.64
2019-04-01T09:58:03.303Z,21.99
2019-04-01T10:00:34.521Z,21.68
2019-04-01T10:03:05.662Z,22.22
2019-04-01T10:05:37.045Z,22.36
2019-04-01T10:08:08.302Z,22.30
2019-04-01T10:10:39.362Z,22.37
2019-04-01T10:13:10.555Z,21.97
2019-04-01T10:15:41.991Z,21.55
2019-04-01T10:18:13.031Z,21.28
2019-04-01T10:20:44.180Z,21.46
2019-04-01T10:23:15.149Z,21.39
2019-04-01T10:25:46.410Z,21.70
2019-04-01T10:28:17.672Z,21.53
2019-04-01T10:30:48.823Z,20.99
2019-04-01T10:33:19.947Z,20.89
2019-04-01T10:35:51.195Z,21.08
2019-04-01T10:38:22.431Z,21.21
2019-04-01T10:40:53.517Z,21.23
2019-04-01T10:43:24.593Z,20.96
2019-04-01T10:45:55.866Z,21.12
2019-04-01T10:48:27.218Z,21.32
2019-04-01T10:53:28.417Z,21.21
2019-04-01T10:55:59.707Z,21.50
2019-04-01T10:58:31.409Z,21.66
2019-04-01T11:01:02.919Z,21.64
2019-04-01T11:03:34.400Z,21.14
2019-04-01T11:06:06.026Z,20.96
2019-04-01T11:08:37.313Z,21.16
2019-04-01T11:11:08.469Z,21.44
2019-04-01T11:13:39.909Z,21.71
2019-04-01T11:16:11.388Z,21.91
2019-04-01T11:18:42.437Z,22.11
2019-04-01T11:21:13.705Z,21.60
2019-04-01T11:23:45.150Z,21.34
2019-04-01T11:26:17.895Z,21.38
2019-04-01T11:28:49.233Z,21.64
2019-04-01T11:31:20.467Z,21.62
2019-04-01T11:33:51.537Z,22.02
2019-04-01T11:36:23.349Z,22.27
2019-04-01T11:38:54.904Z,22.48
2019-04-01T11:41:26.245Z,21.96
2019-04-01T11:43:57.477Z,22.29
2019-04-01T11:46:29.049Z,22.45
2019-04-01T11:49:00.376Z,22.61
2019-04-01T11:51:33.708Z,22.35
2019-04-01T11:54:07.979Z,21.88
2019-04-01T11:56:37.347Z,22.55
2019-04-01T11:59:08.793Z,22.58
2019-04-01T12:01:40.209Z,22.03
2019-04-01T12:04:11.537Z,21.95
2019-04-01T12:06:42.739Z,21.97
2019-04-01T12:09:13.917Z,22.16
2019-04-01T12:11:45.178Z,21.12
2019-04-01T12:14:16.569Z,20.92
2019-04-01T12:16:47.870Z,20.92
2019-04-01T12:19:19.040Z,20.86
2019-04-01T12:21:50.154Z,20.84
2019-04-01T12:24:21.214Z,20.95
2019-04-01T12:26:52.248Z,21.09
2019-04-01T12:29:23.340Z,20.79
2019-04-01T12:31:54.360Z,20.65
2019-04-01T12:34:25.556Z,20.58
2019-04-01T12:36:56.860Z,20.27
2019-04-01T12:39:28.093Z,20.31
2019-04-01T12:41:59.888Z,20.14
2019-04-01T12:44:31.334Z,20.40
2019-04-01T12:47:02.671Z,20.39
2019-04-01T12:49:33.868Z,20.34
2019-04-01T12:52:05.157Z,20.45
2019-04-01T12:54:36.255Z,19.99
2019-04-01T12:57:07.510Z,20.09
2019-04-01T12:59:38.555Z,20.20
2019-04-01T13:02:09.989Z,20.23
2019-04-01T13:04:41.239Z,20.38
2019-04-01T13:07:12.584Z,20.27
2019-04-01T13:09:43.467Z,20.21
2019-04-01T13:12:14.411Z,20.17
2019-04-01T13:14:45.294Z,20.13
2019-04-01T13:17:16.526Z,20.22
2019-04-01T13:19:47.692Z,20.32
2019-04-01T13:22:19.127Z,20.41
2019-04-01T13:24:50.301Z,20.34
2019-04-01T13:27:21.662Z,20.33
2019-04-01T13:29:52.941Z,20.15
2019-04-01T13:32:24.278Z,20.14
2019-04-01T13:34:55.346Z,20.13
2019-04-01T13:37:26.441Z,20.16
2019-04-01T13:39:57.617Z,20.23
2019-04-01T13:42:28.785Z,20.07
2019-04-01T13:45:01.811Z,20.04
2019-04-01T13:47:32.609Z,20.02
2019-04-01T13:50:04.052Z,20.07
2019-04-01T13:52:35.137Z,20.03
2019-04-01T13:55:06.400Z,20.12
2019-04-01T13:57:37.661Z,20.09
2019-04-01T14:00:09.471Z,20.00
2019-04-01T14:02:40.566Z,19.93
2019-04-01T14:05:11.829Z,19.88
2019-04-01T14:07:42.813Z,19.97
2019-04-01T14:10:14.479Z,19.84
2019-04-01T14:12:45.566Z,19.83
2019-04-01T14:15:16.764Z,19.82
2019-04-01T14:17:47.836Z,19.66
2019-04-01T14:20:19.375Z,19.59
2019-04-01T14:22:53.577Z,19.62
2019-04-01T14:25:23.700Z,19.66
2019-04-01T14:27:54.932Z,19.58
2019-04-01T14:30:26.552Z,19.54
2019-04-01T14:32:57.797Z,19.48
2019-04-01T14:35:28.910Z,19.38
2019-04-01T14:38:00.266Z,19.27
2019-04-01T14:40:32.735Z,19.23
2019-04-01T14:43:03.912Z,19.20
2019-04-01T14:45:35.494Z,19.20
2019-04-01T14:48:08.582Z,19.24
2019-04-01T14:50:39.827Z,19.33
2019-04-01T14:53:11.007Z,19.30
2019-04-01T14:55:42.255Z,19.36
2019-04-01T14:58:13.644Z,19.24
2019-04-01T15:00:44.590Z,19.21
2019-04-01T15:03:16.101Z,19.21
2019-04-01T15:05:48.982Z,19.18
2019-04-01T15:08:20.104Z,19.18
2019-04-01T15:10:51.452Z,19.32
2019-04-01T15:13:22.651Z,19.31
2019-04-01T15:15:53.672Z,19.14
2019-04-01T15:18:24.706Z,19.20
2019-04-01T15:20:55.776Z,19.13
2019-04-01T15:23:27.462Z,18.99
2019-04-01T15:25:58.978Z,18.81
2019-04-01T15:28:30.575Z,18.72
2019-04-01T15:31:02.649Z,18.68
2019-04-01T15:33:33.941Z,18.73
2019-04-01T15:36:05.397Z,18.54
2019-04-01T15:38:36.607Z,18.57
2019-04-01T15:41:07.580Z,18.51
2019-04-01T15:43:38.606Z,18.53
2019-04-01T15:46:12.949Z,18.52
2019-04-01T15:48:43.848Z,18.46
2019-04-01T15:51:15.209Z,18.38
2019-04-01T15:53:44.375Z,18.23
2019-04-01T15:56:15.413Z,18.23
2019-04-01T15:58:46.627Z,18.20
2019-04-01T16:01:17.810Z,18.20
2019-04-01T16:03:49.220Z,18.23
2019-04-01T16:06:20.412Z,18.21
2019-04-01T16:08:51.673Z,18.17
2019-04-01T16:11:23.249Z,18.17
2019-04-01T16:13:55.992Z,18.11
2019-04-01T16:16:27.161Z,17.95
2019-04-01T16:18:59.263Z,17.95
2019-04-01T16:21:31.508Z,18.06
2019-04-01T16:24:02.718Z,17.93
2019-04-01T16:26:33.651Z,17.94
2019-04-01T16:29:04.746Z,17.87
2019-04-01T16:31:35.650Z,17.88
2019-04-01T16:34:06.538Z,17.86
2019-04-01T16:36:37.397Z,17.82
2019-04-01T16:39:10.441Z,17.73
2019-04-01T16:41:41.570Z,17.69
2019-04-01T16:44:12.563Z,17.69
2019-04-01T16:46:43.898Z,17.50
2019-04-01T16:49:15.118Z,17.48
2019-04-01T16:51:46.493Z,17.42
2019-04-01T16:54:17.595Z,17.45
2019-04-01T16:56:48.749Z,17.42
2019-04-01T16:59:19.767Z,17.36
2019-04-01T17:01:51.378Z,17.34
2019-04-01T17:04:23.846Z,17.22
2019-04-01T17:06:55.007Z,17.26
2019-04-01T17:09:26.211Z,17.22
2019-04-01T17:11:58.988Z,17.12
2019-04-01T17:14:30.324Z,17.03
2019-04-01T17:17:01.309Z,17.01
2019-04-01T17:19:32.529Z,17.04
2019-04-01T17:22:03.827Z,16.95
2019-04-01T17:24:35.001Z,16.88
2019-04-01T17:27:14.322Z,16.90
2019-04-01T17:29:46.911Z,16.82
2019-04-01T17:32:18.212Z,16.82
2019-04-01T17:34:49.574Z,16.75
2019-04-01T17:37:20.624Z,16.67
2019-04-01T17:39:51.720Z,16.67
2019-04-01T17:42:22.882Z,16.72
2019-04-01T17:44:57.240Z,16.75
2019-04-01T17:47:28.308Z,16.78
2019-04-01T17:50:00.233Z,16.78
2019-04-01T17:52:32.380Z,16.71
2019-04-01T17:55:04.583Z,16.71
2019-04-01T17:57:35.564Z,16.68
2019-04-01T18:00:12.265Z,16.78
2019-04-01T18:02:44.077Z,16.73
2019-04-01T18:05:17.664Z,16.73
2019-04-01T18:07:49.808Z,16.79
2019-04-01T18:10:20.979Z,16.80
2019-04-01T18:12:52.456Z,16.89
2019-04-01T18:15:23.871Z,16.85
2019-04-01T18:17:54.965Z,16.78
2019-04-01T18:20:27.784Z,16.81
2019-04-01T18:22:58.722Z,16.81
2019-04-01T18:25:29.999Z,16.77
2019-04-01T18:28:01.326Z,16.64
2019-04-01T18:30:35.135Z,16.57
2019-04-01T18:33:06.335Z,16.60
2019-04-01T18:35:37.622Z,16.60
2019-04-01T18:38:08.631Z,16.60
2019-04-01T18:40:39.635Z,16.21
2019-04-01T18:43:10.791Z,16.21
2019-04-01T18:45:42.315Z,16.20
2019-04-01T18:48:14.819Z,16.20
2019-04-01T18:50:46.097Z,16.17
2019-04-01T18:53:17.405Z,16.14
2019-04-01T18:55:48.311Z,16.02
2019-04-01T18:58:19.162Z,15.93
2019-04-01T19:00:50.370Z,15.95
2019-04-01T19:03:24.055Z,15.92
2019-04-01T19:05:54.412Z,15.74
2019-04-01T19:08:25.573Z,15.74
2019-04-01T19:11:02.514Z,15.86
2019-04-01T19:13:29.368Z,15.76
2019-04-01T19:16:01.637Z,15.59
2019-04-01T19:18:33.460Z,15.63
2019-04-01T19:21:06.009Z,15.68
2019-04-01T19:23:37.202Z,15.58
2019-04-01T19:26:10.142Z,15.51
2019-04-01T19:28:41.193Z,15.23
2019-04-01T19:31:14.327Z,15.22
2019-04-01T19:33:45.566Z,15.10
2019-04-01T19:36:16.929Z,15.06
2019-04-01T19:38:48.119Z,15.14
2019-04-01T19:41:19.521Z,15.13
2019-04-01T19:43:51.590Z,15.04
2019-04-01T19:46:23.083Z,14.91
2019-04-01T19:48:54.317Z,14.83
2019-04-01T19:51:25.510Z,14.78
2019-04-01T19:53:56.771Z,14.67
2019-04-01T19:56:27.898Z,14.66
2019-04-01T19:58:59.450Z,14.63
2019-04-01T20:01:30.641Z,14.58
2019-04-01T20:04:01.883Z,14.55
2019-04-01T20:06:33.097Z,14.54
2019-04-01T20:09:06.180Z,14.55
2019-04-01T20:11:37.361Z,14.56
2019-04-01T20:14:08.568Z,14.56
2019-04-01T20:16:41.102Z,14.61
2019-04-01T20:19:12.472Z,14.55
2019-04-01T20:21:43.531Z,14.60
2019-04-01T20:24:14.970Z,14.68
2019-04-01T20:26:46.214Z,14.64
2019-04-01T20:29:18.211Z,14.71
2019-04-01T20:31:49.299Z,14.74
2019-04-01T20:34:22.401Z,14.68
2019-04-01T20:36:53.116Z,14.69
2019-04-01T20:39:25.277Z,14.79
2019-04-01T20:41:56.757Z,14.73
2019-04-01T20:44:27.900Z,14.75
2019-04-01T20:46:58.966Z,14.82
2019-04-01T20:49:30.275Z,14.88
2019-04-01T20:52:01.650Z,14.80
2019-04-01T20:54:32.766Z,14.76
2019-04-01T20:57:05.219Z,14.93
2019-04-01T20:59:36.528Z,14.73
2019-04-01T21:02:07.674Z,14.79
2019-04-01T21:04:38.929Z,14.85
2019-04-01T21:07:10.177Z,14.90
2019-04-01T21:09:41.026Z,14.91
2019-04-01T21:12:12.097Z,14.94
2019-04-01T21:14:43.154Z,14.85
2019-04-01T21:17:14.471Z,14.84
2019-04-01T21:19:45.593Z,14.83
2019-04-01T21:22:16.672Z,14.87
2019-04-01T21:24:47.913Z,14.91
2019-04-01T21:27:19.090Z,14.94
2019-04-01T21:29:50.228Z,14.73
2019-04-01T21:32:22.360Z,14.29
2019-04-01T21:34:54.039Z,14.08
2019-04-01T21:37:25.252Z,13.77
2019-04-01T21:39:56.378Z,13.53
2019-04-01T21:42:27.580Z,13.35
2019-04-01T21:44:59.019Z,13.23
2019-04-01T21:47:29.902Z,13.09
2019-04-01T21:50:01.109Z,12.98
2019-04-01T21:52:31.975Z,12.85
2019-04-01T21:55:03.265Z,12.71
2019-04-01T21:57:34.164Z,12.61
2019-04-01T22:00:07.383Z,12.35
2019-04-01T22:02:40.821Z,12.15
2019-04-01T22:05:12.534Z,11.97
2019-04-01T22:07:44.091Z,11.78
2019-04-01T22:10:15.476Z,11.70
2019-04-01T22:12:46.827Z,11.57
2019-04-01T22:15:18.835Z,11.49
2019-04-01T22:17:50.218Z,11.33
2019-04-01T22:20:21.718Z,11.12
2019-04-01T22:22:53.326Z,10.99
2019-04-01T22:25:24.701Z,10.76
2019-04-01T22:27:56.228Z,10.76
2019-04-01T22:30:27.939Z,10.73
2019-04-01T22:32:59.358Z,10.63
2019-04-01T22:35:38.453Z,10.66
2019-04-01T22:38:06.200Z,10.68
2019-04-01T22:40:38.010Z,10.66
2019-04-01T22:43:09.371Z,10.64
2019-04-01T22:45:40.785Z,10.68
2019-04-01T22:48:12.028Z,10.61
2019-04-01T22:50:43.194Z,10.59
2019-04-01T22:53:14.684Z,10.53
2019-04-01T22:55:46.284Z,10.49
2019-04-01T22:58:17.771Z,10.47
2019-04-01T23:00:49.066Z,10.48
2019-04-01T23:03:20.286Z,10.46
2019-04-01T23:05:51.623Z,10.46
2019-04-01T23:08:22.903Z,10.47
2019-04-01T23:10:54.316Z,10.41
2019-04-01T23:13:25.591Z,10.34
2019-04-01T23:15:56.947Z,10.31
2019-04-01T23:18:28.091Z,10.24
2019-04-01T23:20:59.255Z,10.24
2019-04-01T23:23:30.630Z,10.29
2019-04-01T23:26:01.897Z,10.15
2019-04-01T23:28:33.301Z,10.17
2019-04-01T23:31:04.771Z,10.15
2019-04-01T23:33:36.252Z,10.07
2019-04-01T23:36:07.718Z,10.10
2019-04-01T23:38:40.113Z,10.12
2019-04-01T23:41:11.698Z,10.26
2019-04-01T23:43:43.121Z,10.20
2019-04-01T23:46:14.491Z,10.23
2019-04-01T23:48:45.957Z,10.20
2019-04-01T23:51:17.254Z,10.16
2019-04-01T23:53:48.520Z,10.08
2019-04-01T23:56:20.076Z,10.02
2019-04-01T23:58:51.627Z,9.98
